Time;durP1;ratioP1;P1;durP2;ratioP2;P2;SDS_P1;SDS_P2;PMS_P1;PMS_P2;Temp;Humidity;BMP_temperature;BMP_pressure;BME280_temperature;BME280_humidity;BME280_pressure;Samples;Min_cycle;Max_cycle;Signal;HPM_P1;HPM_P2
2022/08/14 00:00:22;;;;;;;6.00;4.90;;;19.90;99.90;;;;;;5027850;28;20075;-59
2022/08/14 00:02:48;;;;;;;8.15;5.90;;;19.80;99.90;;;;;;5031359;28;20344;-57
2022/08/14 00:05:17;;;;;;;8.05;5.03;;;19.80;99.90;;;;;;5030193;28;20463;-58
2022/08/14 00:07:43;;;;;;;6.80;5.15;;;19.70;99.90;;;;;;5024346;28;20492;-57
2022/08/14 00:10:12;;;;;;;6.57;5.10;;;19.60;99.90;;;;;;5032478;28;20034;-58
2022/08/14 00:12:41;;;;;;;8.75;5.53;;;19.60;99.90;;;;;;5028632;28;20040;-57
2022/08/14 00:15:12;;;;;;;10.00;5.97;;;19.50;99.90;;;;;;5021860;28;20029;-57
2022/08/14 00:17:38;;;;;;;8.75;6.38;;;19.50;99.90;;;;;;5028935;28;20037;-58
2022/08/14 00:20:06;;;;;;;7.85;6.75;;;19.40;99.90;;;;;;5027450;28;20025;-59
2022/08/14 00:22:32;;;;;;;11.27;7.10;;;19.40;99.90;;;;;;5028098;28;20025;-59
2022/08/14 00:24:57;;;;;;;14.30;7.03;;;19.40;99.90;;;;;;5029632;28;20175;-58
2022/08/14 00:27:23;;;;;;;9.70;6.93;;;19.40;99.90;;;;;;5034874;28;20502;-56
2022/08/14 00:29:48;;;;;;;13.63;7.43;;;19.30;99.90;;;;;;5024889;28;20048;-58
2022/08/14 00:32:15;;;;;;;9.32;6.05;;;19.30;99.90;;;;;;5025273;28;20030;-57
2022/08/14 00:34:40;;;;;;;10.32;6.47;;;19.20;99.90;;;;;;5027491;28;20032;-56
2022/08/14 00:37:06;;;;;;;11.13;7.20;;;19.30;99.90;;;;;;5029396;28;20030;-57
2022/08/14 00:39:32;;;;;;;14.52;8.27;;;19.20;99.90;;;;;;5031948;28;20049;-56
2022/08/14 00:41:57;;;;;;;9.27;6.70;;;19.20;99.90;;;;;;5022483;28;20049;-56
2022/08/14 00:44:23;;;;;;;10.75;6.45;;;19.20;99.90;;;;;;5022859;28;20560;-55
2022/08/14 00:46:49;;;;;;;12.93;7.50;;;19.10;99.90;;;;;;5026218;28;20701;-57
2022/08/14 00:49:14;;;;;;;13.80;6.97;;;19.10;99.90;;;;;;5025692;28;20033;-59
2022/08/14 00:51:42;;;;;;;12.80;7.65;;;19.10;99.90;;;;;;5031193;28;20102;-59
2022/08/14 00:54:08;;;;;;;8.93;6.55;;;19.10;99.90;;;;;;5026997;28;20021;-58
2022/08/14 00:56:35;;;;;;;12.00;7.10;;;19.00;99.90;;;;;;5029251;28;20031;-59
2022/08/14 00:59:01;;;;;;;15.68;7.90;;;19.00;99.90;;;;;;5029650;28;20021;-59
2022/08/14 01:01:28;;;;;;;14.30;7.35;;;19.00;99.90;;;;;;5029933;28;20052;-56
2022/08/14 01:03:56;;;;;;;11.57;7.68;;;19.00;99.90;;;;;;5030950;28;20017;-59
2022/08/14 01:06:22;;;;;;;13.38;7.53;;;19.00;99.90;;;;;;5034161;28;20021;-57
2022/08/14 01:08:49;;;;;;;13.82;7.43;;;18.90;99.90;;;;;;5024645;28;20048;-58
2022/08/14 01:11:15;;;;;;;12.57;8.38;;;18.90;99.90;;;;;;5035569;28;20495;-57
2022/08/14 01:13:43;;;;;;;13.65;7.95;;;18.90;99.90;;;;;;5029492;28;20022;-57
2022/08/14 01:16:14;;;;;;;13.85;7.60;;;18.80;99.90;;;;;;5033560;28;20041;-59
2022/08/14 01:21:31;;;;;;;;;;;18.70;99.90;;;;;;5031454;28;20080;-56
2022/08/14 01:23:57;;;;;;;13.23;5.60;;;18.70;99.90;;;;;;5016592;28;19916;-56
2022/08/14 01:26:24;;;;;;;11.85;5.30;;;18.60;99.90;;;;;;5020398;28;20055;-55
2022/08/14 01:28:54;;;;;;;7.32;4.97;;;18.60;99.90;;;;;;5025659;28;20025;-54
2022/08/14 01:31:22;;;;;;;6.57;5.43;;;18.70;99.90;;;;;;5026745;28;20457;-57
2022/08/14 01:33:52;;;;;;;7.20;5.30;;;18.70;99.90;;;;;;5032936;28;20385;-57
2022/08/14 01:36:22;;;;;;;7.68;5.13;;;18.80;99.90;;;;;;5027874;28;20487;-56
2022/08/14 01:38:49;;;;;;;11.98;5.65;;;18.80;99.90;;;;;;5028115;28;20029;-55
2022/08/14 01:41:19;;;;;;;8.55;5.95;;;18.80;99.90;;;;;;5031035;28;20030;-56
2022/08/14 01:43:49;;;;;;;6.07;5.03;;;18.80;99.90;;;;;;5038988;28;20051;-59
2022/08/14 01:46:24;;;;;;;6.82;5.28;;;18.90;99.90;;;;;;5026099;28;20028;-58
2022/08/14 01:48:51;;;;;;;8.18;5.22;;;18.80;99.90;;;;;;5031416;28;20112;-58
2022/08/14 01:51:22;;;;;;;12.80;6.00;;;18.70;99.90;;;;;;5029250;28;20034;-59
2022/08/14 01:54:04;;;;;;;8.27;4.85;;;18.70;99.90;;;;;;5036030;28;20021;-57
2022/08/14 01:56:38;;;;;;;9.45;6.15;;;18.70;99.90;;;;;;5036516;28;20021;-58
2022/08/14 01:59:27;;;;;;;9.70;6.00;;;18.50;99.90;;;;;;5039909;28;20028;-57
2022/08/14 02:01:55;;;;;;;9.20;6.05;;;18.50;99.90;;;;;;5023724;28;20025;-55
2022/08/14 02:04:23;;;;;;;11.75;5.82;;;18.40;99.90;;;;;;5033650;28;20033;-58
2022/08/14 02:06:50;;;;;;;6.80;5.55;;;18.40;99.90;;;;;;5023043;28;20049;-58
2022/08/14 02:09:17;;;;;;;9.02;6.20;;;18.30;99.90;;;;;;5016295;28;20027;-56
2022/08/14 02:11:43;;;;;;;7.35;6.00;;;18.30;99.90;;;;;;5020213;28;20058;-58
2022/08/14 02:14:11;;;;;;;9.50;5.80;;;18.20;99.90;;;;;;5028812;28;20553;-57
2022/08/14 02:16:46;;;;;;;8.50;5.25;;;18.20;99.90;;;;;;5029565;28;20024;-58
2022/08/14 02:19:15;;;;;;;7.03;5.45;;;18.20;99.90;;;;;;5029191;28;20033;-58
2022/08/14 02:21:43;;;;;;;11.57;5.47;;;18.30;99.90;;;;;;5027921;28;20108;-58
2022/08/14 02:24:10;;;;;;;6.80;5.18;;;18.30;99.90;;;;;;5032805;28;20418;-57
2022/08/14 02:26:38;;;;;;;6.85;5.40;;;18.30;99.90;;;;;;5035739;28;20053;-57
2022/08/14 02:29:09;;;;;;;8.45;5.47;;;18.30;99.90;;;;;;5031975;28;20484;-55
2022/08/14 02:31:41;;;;;;;10.13;5.72;;;18.40;99.90;;;;;;5033094;28;20051;-57
2022/08/14 02:34:20;;;;;;;7.40;5.78;;;18.40;99.90;;;;;;5031192;28;20040;-58
2022/08/14 02:36:52;;;;;;;10.65;5.47;;;18.40;99.90;;;;;;5026179;28;20037;-59
2022/08/14 02:39:18;;;;;;;9.23;6.05;;;18.40;99.90;;;;;;5035982;28;20017;-54
2022/08/14 02:41:51;;;;;;;11.63;6.05;;;18.30;99.90;;;;;;5026804;28;20041;-59
2022/08/14 02:44:20;;;;;;;11.20;6.10;;;18.20;99.90;;;;;;5029405;28;20037;-59
2022/08/14 02:46:46;;;;;;;8.68;6.78;;;18.10;99.90;;;;;;5032431;28;20037;-58
2022/08/14 02:49:12;;;;;;;9.60;5.85;;;18.00;99.90;;;;;;5011863;28;20033;-59
2022/08/14 02:51:37;;;;;;;11.70;6.53;;;17.90;99.90;;;;;;5033063;28;20017;-59
2022/08/14 02:54:06;;;;;;;8.40;6.65;;;17.90;99.90;;;;;;5029539;28;20037;-58
2022/08/14 02:56:32;;;;;;;10.05;6.03;;;17.90;99.90;;;;;;5027631;28;20025;-54
2022/08/14 02:59:00;;;;;;;9.35;6.32;;;18.00;99.90;;;;;;5026206;28;20056;-59
2022/08/14 03:01:27;;;;;;;8.32;6.70;;;18.00;99.90;;;;;;5030183;28;20092;-59
2022/08/14 03:03:54;;;;;;;9.48;6.40;;;18.10;99.90;;;;;;5037689;28;20044;-59
2022/08/14 03:06:22;;;;;;;10.93;5.93;;;18.10;99.90;;;;;;5027476;28;20026;-58
2022/08/14 03:08:48;;;;;;;8.23;5.57;;;18.20;99.90;;;;;;5032458;28;20021;-59
2022/08/14 03:11:14;;;;;;;7.55;5.65;;;18.20;99.90;;;;;;5027566;28;20040;-59
2022/08/14 03:13:43;;;;;;;10.23;6.28;;;18.20;99.90;;;;;;5027399;28;20042;-59
2022/08/14 03:16:14;;;;;;;9.23;5.90;;;18.20;99.90;;;;;;5033232;28;20022;-59
2022/08/14 03:18:42;;;;;;;8.88;6.38;;;18.20;99.90;;;;;;5034142;28;20025;-57
2022/08/14 03:21:12;;;;;;;7.78;6.40;;;18.10;99.90;;;;;;5033481;28;20029;-59
2022/08/14 03:23:38;;;;;;;9.45;6.70;;;18.00;99.90;;;;;;5027215;28;20079;-59
2022/08/14 03:26:16;;;;;;;11.32;6.57;;;17.90;99.90;;;;;;5014660;28;20120;-59
2022/08/14 03:28:43;;;;;;;9.05;6.60;;;17.90;99.90;;;;;;5036122;28;20029;-57
2022/08/14 03:31:10;;;;;;;7.38;5.82;;;17.90;99.90;;;;;;5024317;28;20026;-57
2022/08/14 03:33:39;;;;;;;11.82;6.72;;;17.90;99.90;;;;;;5031207;28;20091;-57
2022/08/14 03:36:13;;;;;;;9.65;6.57;;;17.90;99.90;;;;;;5022504;28;20793;-57
2022/08/14 03:38:43;;;;;;;6.72;5.53;;;18.00;99.90;;;;;;5034693;28;20029;-57
2022/08/14 03:41:15;;;;;;;8.50;6.68;;;18.00;99.90;;;;;;5026921;28;20506;-57
2022/08/14 03:43:49;;;;;;;11.27;5.90;;;18.00;99.90;;;;;;5030202;28;20530;-57
2022/08/14 03:46:15;;;;;;;;;;;18.00;99.90;;;;;;5005707;28;20518;-57
2022/08/14 03:48:42;;;;;;;8.95;6.25;;;18.00;99.90;;;;;;5037593;28;19905;-59
2022/08/14 03:51:12;;;;;;;9.02;7.07;;;18.10;99.90;;;;;;5024856;28;20044;-59
2022/08/14 03:53:40;;;;;;;7.00;5.72;;;18.10;99.90;;;;;;5026874;28;20037;-53
2022/08/14 03:56:11;;;;;;;21.58;7.35;;;18.00;99.90;;;;;;5026434;28;20030;-56
2022/08/14 03:58:44;;;;;;;8.35;6.88;;;18.00;99.90;;;;;;5030309;28;20025;-52
2022/08/14 04:01:10;;;;;;;11.05;7.40;;;18.00;99.90;;;;;;5025137;28;20501;-55
2022/08/14 04:03:36;;;;;;;10.02;7.25;;;17.90;99.90;;;;;;5028042;28;20044;-58
2022/08/14 04:06:02;;;;;;;9.18;7.13;;;17.90;99.90;;;;;;5025887;28;20033;-57
2022/08/14 04:08:28;;;;;;;11.73;7.50;;;17.80;99.90;;;;;;5029986;28;20475;-56
2022/08/14 04:10:53;;;;;;;13.27;7.35;;;17.80;99.90;;;;;;5036070;28;20021;-59
2022/08/14 04:13:19;;;;;;;13.00;7.60;;;17.80;99.90;;;;;;5037099;28;20021;-58
2022/08/14 04:15:45;;;;;;;9.65;7.75;;;17.80;99.90;;;;;;5021404;28;20136;-59
2022/08/14 04:18:12;;;;;;;11.98;7.82;;;17.80;99.90;;;;;;5030168;28;20400;-59
2022/08/14 04:20:39;;;;;;;14.70;7.47;;;17.80;99.90;;;;;;5026817;28;20029;-59
2022/08/14 04:23:06;;;;;;;10.23;7.80;;;17.80;99.90;;;;;;5030469;28;20120;-57
2022/08/14 04:25:34;;;;;;;11.25;7.93;;;17.90;99.90;;;;;;5021415;28;20022;-57
2022/08/14 04:28:00;;;;;;;8.82;6.90;;;17.90;99.90;;;;;;5026609;28;20021;-58
2022/08/14 04:30:27;;;;;;;12.40;7.90;;;18.00;99.90;;;;;;5025432;28;20108;-56
2022/08/14 04:32:54;;;;;;;8.07;6.70;;;18.00;99.90;;;;;;5026482;28;20533;-56
2022/08/14 04:35:20;;;;;;;8.20;7.18;;;18.00;99.90;;;;;;5026124;28;20033;-55
2022/08/14 04:45:58;;;;;;;11.30;8.73;;;18.00;99.90;;;;;;5025431;28;20033;-53
2022/08/14 04:48:26;;;;;;;11.13;8.15;;;17.90;99.90;;;;;;5037718;28;20037;-54
2022/08/14 04:50:51;;;;;;;13.15;7.68;;;18.00;99.90;;;;;;5022427;28;20112;-53
2022/08/14 04:53:25;;;;;;;10.88;7.95;;;17.90;99.90;;;;;;5027202;28;20108;-55
2022/08/14 04:55:51;;;;;;;11.50;7.50;;;17.90;99.90;;;;;;5032280;28;20173;-53
2022/08/14 04:58:23;;;;;;;12.13;8.63;;;17.90;99.90;;;;;;5037973;28;20515;-56
2022/08/14 05:00:50;;;;;;;10.20;7.88;;;17.90;99.90;;;;;;5025661;28;20541;-55
2022/08/14 05:03:36;;;;;;;15.80;8.30;;;17.90;99.90;;;;;;5030428;28;20045;-57
2022/08/14 05:06:05;;;;;;;10.77;8.32;;;17.90;99.90;;;;;;5022162;28;20627;-56
2022/08/14 05:08:32;;;;;;;12.05;8.68;;;17.90;99.90;;;;;;5023430;28;20087;-54
2022/08/14 05:10:59;;;;;;;11.82;7.90;;;18.00;99.90;;;;;;5027571;28;20033;-56
2022/08/14 05:13:26;;;;;;;10.60;8.10;;;18.00;99.90;;;;;;5032941;28;20029;-56
2022/08/14 05:15:54;;;;;;;13.50;8.48;;;18.10;99.90;;;;;;5030936;28;20467;-58
2022/08/14 05:18:24;;;;;;;10.82;8.07;;;18.20;99.90;;;;;;5043337;28;20053;-55
2022/08/14 05:20:52;;;;;;;11.88;8.80;;;18.20;99.90;;;;;;5024131;28;20025;-56
2022/08/14 05:23:23;;;;;;;12.50;8.98;;;18.30;99.90;;;;;;5034479;28;20021;-55
2022/08/14 05:25:53;;;;;;;13.98;8.45;;;18.40;99.90;;;;;;5030414;28;20483;-57
2022/08/14 05:28:21;;;;;;;9.88;7.63;;;18.40;99.90;;;;;;5038257;28;20032;-59
2022/08/14 05:30:50;;;;;;;12.63;8.65;;;18.50;99.90;;;;;;5023680;28;20186;-58
2022/08/14 05:33:19;;;;;;;11.93;8.88;;;18.50;99.90;;;;;;5029111;28;20530;-57
2022/08/14 05:35:46;;;;;;;11.40;8.52;;;18.60;99.90;;;;;;5034577;28;20542;-53
2022/08/14 05:38:15;;;;;;;14.07;8.70;;;18.70;99.90;;;;;;5025490;28;20053;-59
2022/08/14 05:40:42;;;;;;;11.25;9.25;;;18.70;99.90;;;;;;5025060;28;20029;-59
2022/08/14 05:43:08;;;;;;;13.65;8.88;;;18.80;99.90;;;;;;5029486;28;20029;-59
2022/08/14 05:45:34;;;;;;;11.38;8.75;;;18.90;99.90;;;;;;5044317;28;20386;-56
2022/08/14 05:48:00;;;;;;;18.48;8.82;;;18.90;99.90;;;;;;5034209;28;20087;-58
2022/08/14 05:50:26;;;;;;;12.90;8.75;;;19.00;99.90;;;;;;5032500;28;20030;-59
2022/08/14 05:52:53;;;;;;;13.27;8.38;;;19.10;99.90;;;;;;5026883;28;20079;-56
2022/08/14 05:55:19;;;;;;;13.18;9.27;;;19.20;99.90;;;;;;5042520;28;20045;-55
2022/08/14 05:57:51;;;;;;;10.35;8.02;;;19.30;99.90;;;;;;5033342;28;20040;-57
2022/08/14 06:00:17;;;;;;;12.25;8.98;;;19.40;99.90;;;;;;5040757;28;20025;-57
2022/08/14 06:02:43;;;;;;;15.82;8.88;;;19.50;99.90;;;;;;5034896;28;20099;-57
2022/08/14 06:05:08;;;;;;;11.90;8.85;;;19.60;99.90;;;;;;5026248;28;20029;-59
2022/08/14 06:07:35;;;;;;;17.95;9.55;;;19.70;99.90;;;;;;5032754;28;20095;-58
2022/08/14 06:10:01;;;;;;;13.27;8.48;;;19.80;99.90;;;;;;5033012;28;20396;-59
2022/08/14 06:12:27;;;;;;;13.07;10.02;;;19.90;99.90;;;;;;5029090;28;20037;-59
2022/08/14 06:14:52;;;;;;;11.15;8.35;;;20.00;99.90;;;;;;5043560;28;20025;-58
2022/08/14 06:17:18;;;;;;;10.60;8.77;;;20.10;99.90;;;;;;5035566;28;20048;-58
2022/08/14 06:19:43;;;;;;;10.65;8.45;;;20.10;99.90;;;;;;5030917;28;20571;-59
2022/08/14 06:22:09;;;;;;;14.05;8.32;;;20.20;99.90;;;;;;5031562;28;20403;-59
2022/08/14 06:24:34;;;;;;;11.18;8.35;;;20.30;99.90;;;;;;5035586;28;20025;-58
2022/08/14 06:27:00;;;;;;;10.25;8.45;;;20.40;99.90;;;;;;5026656;28;20037;-58
2022/08/14 06:29:25;;;;;;;16.58;9.10;;;20.50;99.90;;;;;;5030765;28;20506;-58
2022/08/14 06:31:51;;;;;;;11.15;8.52;;;20.60;99.90;;;;;;5033101;28;20116;-59
2022/08/14 06:34:16;;;;;;;13.43;9.05;;;20.70;99.90;;;;;;5040472;28;20036;-57
2022/08/14 06:36:42;;;;;;;10.30;8.18;;;20.80;99.90;;;;;;5032647;28;20065;-58
2022/08/14 06:39:08;;;;;;;11.02;8.40;;;20.90;99.90;;;;;;5039064;28;20108;-57
2022/08/14 06:41:33;;;;;;;11.60;8.18;;;21.00;99.90;;;;;;5025551;28;20109;-63
2022/08/14 06:43:59;;;;;;;11.45;8.88;;;21.10;99.90;;;;;;5038659;28;20466;-62
2022/08/14 06:46:28;;;;;;;13.05;9.23;;;21.20;99.90;;;;;;5039485;28;20116;-62
2022/08/14 06:48:53;;;;;;;10.82;8.73;;;21.30;99.90;;;;;;5035169;28;20036;-62
2022/08/14 06:51:19;;;;;;;12.90;9.70;;;21.40;99.90;;;;;;5025946;28;20033;-61
2022/08/14 06:53:45;;;;;;;14.25;8.80;;;21.50;99.90;;;;;;5029530;28;20397;-60
2022/08/14 06:56:13;;;;;;;11.30;8.23;;;21.60;99.90;;;;;;5023057;28;20021;-61
2022/08/14 06:58:38;;;;;;;11.55;8.60;;;21.80;99.90;;;;;;5028697;28;20021;-62
2022/08/14 07:06:32;;;;;;;16.38;8.15;;;22.00;99.90;;;;;;5025455;28;20044;-62
2022/08/14 07:08:58;;;;;;;14.57;8.43;;;22.10;99.90;;;;;;5027464;28;20045;-62
2022/08/14 07:11:23;;;;;;;10.23;8.32;;;22.20;99.90;;;;;;5029188;28;20032;-62
2022/08/14 07:13:49;;;;;;;11.18;8.77;;;22.30;99.90;;;;;;5031384;28;20029;-62
2022/08/14 07:16:14;;;;;;;10.93;8.40;;;22.30;99.90;;;;;;5031690;28;20384;-62
2022/08/14 07:18:40;;;;;;;13.05;8.10;;;22.40;99.90;;;;;;5032603;28;20128;-62
2022/08/14 07:21:07;;;;;;;10.75;7.95;;;22.40;99.90;;;;;;5035271;28;20057;-62
2022/08/14 07:23:33;;;;;;;14.32;8.93;;;22.50;99.90;;;;;;5037954;28;20455;-62
2022/08/14 07:26:02;;;;;;;14.32;8.48;;;22.60;99.90;;;;;;5031489;28;20025;-61
2022/08/14 07:28:33;;;;;;;15.57;9.15;;;22.70;99.90;;;;;;5032008;28;20029;-61
2022/08/14 07:31:02;;;;;;;8.73;7.82;;;22.80;99.90;;;;;;5027548;28;20033;-62
2022/08/14 07:33:31;;;;;;;16.33;10.75;;;22.90;99.90;;;;;;5022720;28;20030;-61
2022/08/14 07:36:00;;;;;;;12.20;8.75;;;23.10;99.90;;;;;;5027599;28;20029;-62
2022/08/14 07:38:29;;;;;;;12.07;8.38;;;23.20;99.90;;;;;;5027696;28;20036;-62
2022/08/14 07:40:55;;;;;;;13.43;8.73;;;23.30;99.90;;;;;;5029961;28;20467;-62
2022/08/14 07:43:21;;;;;;;10.45;7.63;;;23.40;99.90;;;;;;5024957;28;20043;-62
2022/08/14 07:45:47;;;;;;;9.85;7.85;;;23.50;99.90;;;;;;5030524;28;20021;-62
2022/08/14 07:48:12;;;;;;;12.70;9.00;;;23.60;99.90;;;;;;5030600;28;20026;-62
2022/08/14 07:50:38;;;;;;;17.23;8.50;;;23.70;99.90;;;;;;5030384;28;20032;-62
2022/08/14 07:53:05;;;;;;;10.27;8.27;;;23.80;99.90;;;;;;5031203;28;20047;-62
2022/08/14 07:55:31;;;;;;;9.35;7.57;;;23.90;99.90;;;;;;5054886;22;20442;-56
2022/08/14 07:57:56;;;;;;;10.13;7.63;;;23.90;99.90;;;;;;5037440;28;20361;-55
2022/08/14 08:00:23;;;;;;;17.13;9.32;;;24.00;99.90;;;;;;5034255;28;20026;-59
2022/08/14 08:02:52;;;;;;;13.13;8.32;;;24.00;99.90;;;;;;5026989;28;20357;-59
2022/08/14 08:05:18;;;;;;;10.38;7.30;;;24.10;99.90;;;;;;5025070;28;20061;-58
2022/08/14 08:07:46;;;;;;;17.02;8.40;;;24.10;99.90;;;;;;5034732;28;20029;-55
2022/08/14 08:10:30;;;;;;;10.40;7.55;;;24.20;99.90;;;;;;5027107;28;20096;-57
2022/08/14 08:12:57;;;;;;;8.27;7.30;;;24.20;99.90;;;;;;5024688;28;20068;-57
2022/08/14 08:15:25;;;;;;;10.60;6.78;;;24.30;99.90;;;;;;5018842;28;20293;-55
2022/08/14 08:17:50;;;;;;;15.93;8.50;;;24.40;99.90;;;;;;5028295;28;20112;-58
2022/08/14 08:20:18;;;;;;;18.65;8.23;;;24.50;99.90;;;;;;5024828;28;20121;-58
2022/08/14 08:22:45;;;;;;;9.75;6.70;;;24.60;99.90;;;;;;5042445;28;20095;-58
2022/08/14 08:25:11;;;;;;;11.80;7.97;;;24.70;99.90;;;;;;5020551;28;20101;-57
2022/08/14 08:27:36;;;;;;;10.25;7.85;;;24.80;99.90;;;;;;5036656;28;20480;-58
2022/08/14 08:30:08;;;;;;;11.02;7.90;;;24.90;99.90;;;;;;5027938;28;20116;-56
2022/08/14 08:32:42;;;;;;;11.02;7.65;;;25.00;99.90;;;;;;5023346;28;20026;-59
2022/08/14 08:35:23;;;;;;;10.35;7.93;;;25.10;99.90;;;;;;5024070;28;20034;-58
2022/08/14 08:37:49;;;;;;;8.82;7.05;;;25.10;99.90;;;;;;5026635;28;20029;-57
2022/08/14 08:40:26;;;;;;;10.05;7.38;;;25.20;99.90;;;;;;5026133;28;20061;-58
2022/08/14 08:42:52;;;;;;;12.85;8.25;;;25.30;99.90;;;;;;5032996;28;20028;-58
2022/08/14 08:45:19;;;;;;;24.90;8.27;;;25.40;99.90;;;;;;5029697;28;20026;-55
2022/08/14 08:47:46;;;;;;;11.15;7.88;;;25.50;99.90;;;;;;5022927;28;20097;-58
2022/08/14 08:50:45;;;;;;;12.70;8.00;;;25.50;99.90;;;;;;5032007;28;20021;-57
2022/08/14 08:53:10;;;;;;;12.43;7.15;;;25.60;99.90;;;;;;5032812;28;20045;-55
2022/08/14 08:55:41;;;;;;;9.07;7.07;;;25.70;99.90;;;;;;5033195;28;20028;-58
2022/08/14 08:58:10;;;;;;;13.40;8.20;;;25.80;99.90;;;;;;5030588;28;20022;-57
2022/08/14 09:00:37;;;;;;;8.73;7.78;;;25.90;99.90;;;;;;5029292;28;20026;-58
2022/08/14 09:03:10;;;;;;;8.25;6.65;;;26.10;99.90;;;;;;5031146;28;20561;-58
2022/08/14 09:05:37;;;;;;;7.93;7.03;;;26.20;99.90;;;;;;5025219;28;20381;-58
2022/08/14 09:08:26;;;;;;;8.52;6.20;;;26.30;99.90;;;;;;5037369;28;20087;-58
2022/08/14 09:10:53;;;;;;;7.32;6.43;;;26.40;99.90;;;;;;5031190;28;20063;-58
2022/08/14 09:13:21;;;;;;;12.48;6.50;;;26.50;99.90;;;;;;5033735;28;20048;-58
2022/08/14 09:15:48;;;;;;;8.82;7.00;;;26.70;99.90;;;;;;5025896;28;20113;-57
2022/08/14 09:18:16;;;;;;;7.10;6.38;;;26.80;99.90;;;;;;5016716;28;20112;-59
2022/08/14 09:20:45;;;;;;;9.48;6.18;;;27.00;99.90;;;;;;5029765;28;20040;-59
2022/08/14 09:23:13;;;;;;;9.63;7.03;;;27.10;99.90;;;;;;5033077;28;20507;-57
2022/08/14 09:25:40;;;;;;;7.07;5.90;;;27.20;99.90;;;;;;5026076;28;20026;-58
2022/08/14 09:28:07;;;;;;;10.48;6.45;;;27.30;99.90;;;;;;5039772;28;20065;-58
2022/08/14 09:30:36;;;;;;;6.68;5.97;;;27.60;99.90;;;;;;5030820;28;20514;-58
2022/08/14 09:33:01;;;;;;;6.53;5.43;;;27.80;99.90;;;;;;5040777;28;20037;-58
2022/08/14 09:35:45;;;;;;;7.53;5.47;;;27.90;99.90;;;;;;5031762;28;20033;-59
2022/08/14 09:38:35;;;;;;;8.07;6.05;;;28.00;99.90;;;;;;5030089;28;20038;-59
2022/08/14 09:41:28;;;;;;;6.85;5.63;;;28.10;99.90;;;;;;5032831;28;20501;-59
2022/08/14 09:44:01;;;;;;;5.75;5.18;;;28.30;99.90;;;;;;5028893;28;20108;-59
2022/08/14 09:46:27;;;;;;;10.90;5.03;;;28.40;99.90;;;;;;5030401;28;20084;-58
2022/08/14 09:49:04;;;;;;;7.03;4.80;;;28.60;99.90;;;;;;5028205;28;20037;-58
2022/08/14 09:51:31;;;;;;;5.47;4.82;;;28.80;99.90;;;;;;5025394;28;20039;-58
2022/08/14 09:54:09;;;;;;;6.47;4.32;;;28.80;99.90;;;;;;5027325;28;20033;-58
2022/08/14 09:56:46;;;;;;;6.53;4.38;;;29.00;99.90;;;;;;5030519;28;20049;-59
2022/08/14 09:59:14;;;;;;;9.27;4.80;;;29.20;99.90;;;;;;5022595;28;20033;-59
2022/08/14 10:01:40;;;;;;;6.63;4.38;;;29.30;99.90;;;;;;5028291;28;20030;-59
2022/08/14 10:04:24;;;;;;;5.50;3.65;;;29.50;99.90;;;;;;5030440;28;20403;-55
2022/08/14 10:06:50;;;;;;;6.97;3.70;;;29.60;99.90;;;;;;5037502;28;20044;-58
2022/08/14 10:09:17;;;;;;;5.18;4.15;;;29.70;99.90;;;;;;5023524;28;20030;-58
2022/08/14 10:11:57;;;;;;;5.38;4.35;;;29.80;99.90;;;;;;5031253;28;20026;-57
2022/08/14 10:14:26;;;;;;;4.90;4.45;;;29.90;99.90;;;;;;5031074;28;20104;-58
2022/08/14 10:16:57;;;;;;;6.85;4.78;;;30.00;99.90;;;;;;5031848;28;20113;-58
2022/08/14 10:19:27;;;;;;;4.55;3.90;;;30.10;99.90;;;;;;5024492;28;20033;-58
2022/08/14 10:22:00;;;;;;;4.40;3.70;;;30.30;99.90;;;;;;5026523;28;20044;-58
2022/08/14 10:24:28;;;;;;;3.45;3.15;;;30.50;99.90;;;;;;5030849;28;20029;-57
2022/08/14 10:26:56;;;;;;;7.53;4.20;;;30.70;99.90;;;;;;5029612;28;20387;-57
2022/08/14 10:29:33;;;;;;;6.53;4.25;;;31.10;99.90;;;;;;5026957;28;20030;-56
2022/08/14 10:31:59;;;;;;;4.70;4.28;;;30.90;99.90;;;;;;5022747;28;20022;-57
2022/08/14 10:34:34;;;;;;;4.22;3.83;;;30.90;99.90;;;;;;5024640;28;20045;-57
2022/08/14 10:37:09;;;;;;;4.88;3.90;;;31.20;99.90;;;;;;5023831;28;20029;-57
2022/08/14 10:39:40;;;;;;;5.22;3.83;;;31.30;99.80;;;;;;5024599;28;20113;-56
2022/08/14 10:42:13;;;;;;;5.78;4.88;;;31.50;99.90;;;;;;5023338;28;20121;-56
2022/08/14 10:44:44;;;;;;;4.97;3.45;;;31.10;99.90;;;;;;5017381;28;20038;-57
2022/08/14 10:47:11;;;;;;;4.47;3.90;;;31.30;99.90;;;;;;5022453;28;20483;-57
2022/08/14 10:49:48;;;;;;;4.18;3.78;;;31.50;99.90;;;;;;5030887;28;20032;-57
2022/08/14 10:52:23;;;;;;;4.50;4.03;;;31.50;99.90;;;;;;5027591;28;20025;-57
2022/08/14 10:54:50;;;;;;;9.45;3.95;;;31.80;99.10;;;;;;5026373;28;20021;-58
2022/08/14 10:57:21;;;;;;;9.07;3.97;;;31.90;98.60;;;;;;5028940;28;20056;-58
2022/08/14 10:59:58;;;;;;;22.73;7.07;;;32.00;99.80;;;;;;5024486;28;20023;-57
2022/08/14 11:02:30;;;;;;;14.65;4.95;;;31.90;99.50;;;;;;5031863;28;20125;-57
2022/08/14 11:05:10;;;;;;;6.32;4.10;;;31.90;99.60;;;;;;5032402;28;20036;-58
2022/08/14 11:07:39;;;;;;;6.50;3.50;;;32.30;98.70;;;;;;5031067;28;20060;-58
2022/08/14 11:10:11;;;;;;;16.45;6.20;;;32.40;96.40;;;;;;5028309;28;20036;-57
2022/08/14 11:12:51;;;;;;;6.43;4.32;;;32.20;96.30;;;;;;5025306;28;20068;-57
2022/08/14 11:15:19;;;;;;;3.60;3.30;;;32.40;96.70;;;;;;5024075;28;20383;-57
2022/08/14 11:17:47;;;;;;;5.65;3.35;;;32.00;96.20;;;;;;5035990;28;20033;-56
2022/08/14 11:20:16;;;;;;;6.15;3.00;;;32.10;95.60;;;;;;5033165;28;20032;-57
2022/08/14 11:22:42;;;;;;;3.60;3.22;;;32.40;95.70;;;;;;5026962;28;20030;-57
2022/08/14 11:25:12;;;;;;;4.85;3.30;;;32.70;95.90;;;;;;5028171;28;20029;-57
2022/08/14 11:27:40;;;;;;;3.58;3.00;;;33.00;95.80;;;;;;5030613;28;20029;-57
2022/08/14 11:30:09;;;;;;;4.70;3.40;;;33.30;94.30;;;;;;5027437;28;20050;-57
2022/08/14 11:32:38;;;;;;;4.35;3.50;;;33.30;94.70;;;;;;5029403;28;20112;-57
2022/08/14 11:35:04;;;;;;;5.10;2.97;;;33.60;94.30;;;;;;5032676;28;20036;-56
2022/08/14 11:37:33;;;;;;;4.28;3.28;;;33.80;92.70;;;;;;5029136;28;20052;-54
2022/08/14 11:40:00;;;;;;;3.65;3.35;;;33.70;91.70;;;;;;5037385;28;20182;-58
2022/08/14 11:42:27;;;;;;;3.65;2.85;;;33.20;91.70;;;;;;5027000;28;20033;-58
2022/08/14 11:44:59;;;;;;;8.93;2.83;;;33.50;92.30;;;;;;5028858;28;20035;-58
2022/08/14 11:47:24;;;;;;;7.35;2.78;;;33.70;90.70;;;;;;5036191;28;20056;-57
2022/08/14 11:49:50;;;;;;;3.70;3.33;;;33.60;92.90;;;;;;5032066;28;20127;-57
2022/08/14 11:52:18;;;;;;;7.40;3.63;;;33.60;93.10;;;;;;5031111;28;20037;-58
2022/08/14 11:54:45;;;;;;;4.18;3.08;;;33.60;93.60;;;;;;5032125;28;20017;-58
2022/08/14 11:57:15;;;;;;;4.20;3.33;;;33.80;91.80;;;;;;5034023;28;20033;-56
2022/08/14 11:59:41;;;;;;;4.88;3.55;;;34.00;92.20;;;;;;5032844;28;20025;-55
2022/08/14 12:02:12;;;;;;;3.35;3.05;;;34.10;91.30;;;;;;5030954;28;20048;-57
2022/08/14 12:04:50;;;;;;;4.43;3.35;;;34.20;90.00;;;;;;5025814;28;20104;-59
2022/08/14 12:07:17;;;;;;;3.88;3.58;;;33.70;91.40;;;;;;5030406;28;20033;-58
2022/08/14 12:09:44;;;;;;;3.63;3.30;;;34.00;90.00;;;;;;5038193;28;20602;-57
2022/08/14 12:12:18;;;;;;;3.25;2.95;;;34.00;90.40;;;;;;5032309;28;20029;-58
2022/08/14 12:14:58;;;;;;;4.78;3.40;;;34.00;90.50;;;;;;5029394;28;20025;-57
2022/08/14 12:17:25;;;;;;;3.50;3.20;;;33.60;90.90;;;;;;5020450;28;20026;-58
2022/08/14 12:19:54;;;;;;;29.17;4.03;;;33.80;90.80;;;;;;5028668;28;20033;-57
2022/08/14 12:22:31;;;;;;;6.10;3.42;;;34.20;90.30;;;;;;5021935;28;20025;-57
2022/08/14 12:24:57;;;;;;;3.22;2.92;;;34.70;90.50;;;;;;5024906;28;20408;-58
2022/08/14 12:27:33;;;;;;;3.90;3.45;;;34.90;87.10;;;;;;5036083;28;20043;-58
2022/08/14 12:29:59;;;;;;;4.70;3.53;;;35.20;85.60;;;;;;5023379;28;20045;-58
2022/08/14 12:32:24;;;;;;;8.45;3.70;;;34.80;90.40;;;;;;5026381;28;21758;-58
2022/08/14 12:34:54;;;;;;;4.65;4.15;;;34.50;88.40;;;;;;5027826;28;20037;-57
2022/08/14 12:37:29;;;;;;;5.40;3.80;;;34.40;88.40;;;;;;5020265;28;20057;-58
2022/08/14 12:39:54;;;;;;;3.58;3.28;;;33.90;90.30;;;;;;5027905;28;20024;-58
2022/08/14 12:42:20;;;;;;;3.72;3.33;;;34.20;90.40;;;;;;5028233;28;20030;-58
2022/08/14 12:44:47;;;;;;;5.70;3.30;;;34.60;86.70;;;;;;5037057;28;20554;-58
2022/08/14 12:47:16;;;;;;;3.80;3.40;;;34.80;86.80;;;;;;5028414;28;20480;-58
2022/08/14 12:49:52;;;;;;;5.80;3.25;;;35.30;86.90;;;;;;5019458;28;20017;-57
2022/08/14 12:52:30;;;;;;;3.15;2.80;;;35.20;86.70;;;;;;5027110;28;20116;-56
2022/08/14 12:55:05;;;;;;;3.22;3.00;;;34.70;86.00;;;;;;5023270;28;20495;-58
2022/08/14 12:57:38;;;;;;;11.02;3.47;;;34.00;84.00;;;;;;5020051;28;20052;-58
2022/08/14 13:00:16;;;;;;;3.47;3.03;;;33.20;90.40;;;;;;5020901;28;20022;-58
2022/08/14 13:02:43;;;;;;;4.38;2.90;;;33.70;88.80;;;;;;5028041;28;20060;-58
2022/08/14 13:05:11;;;;;;;4.28;3.65;;;34.10;89.50;;;;;;5033131;28;20039;-60
2022/08/14 13:07:39;;;;;;;3.78;3.08;;;34.20;86.80;;;;;;5028700;28;20058;-58